sensor_id;sensor_type;location;lat;lon;timestamp;P1;durP1;ratioP1;P2;durP2;ratioP2
3567;SDS011;1798;48.486;9.232;2023-03-01T00:01:35;39.45;;;23.20;;
3567;SDS011;1798;48.486;9.232;2023-03-01T00:04:02;36.53;;;22.70;;
3567;SDS011;1798;48.486;9.232;2023-03-01T00:06:29;40.88;;;23.90;;
3567;SDS011;1798;48.486;9.232;2023-03-01T00:08:57;43.08;;;25.10;;
3567;SDS011;1798;48.486;9.232;2023-03-01T00:11:25;39.33;;;23.03;;
3567;SDS011;1798;48.486;9.232;2023-03-01T00:13:53;40.37;;;21.90;;
3567;SDS011;1798;48.486;9.232;2023-03-01T00:16:22;36.85;;;23.25;;
3567;SDS011;1798;48.486;9.232;2023-03-01T00:18:49;36.72;;;21.67;;
3567;SDS011;1798;48.486;9.232;2023-03-01T00:21:16;36.28;;;21.17;;
3567;SDS011;1798;48.486;9.232;2023-03-01T00:23:43;42.58;;;21.95;;
3567;SDS011;1798;48.486;9.232;2023-03-01T00:26:12;35.67;;;22.80;;
3567;SDS011;1798;48.486;9.232;2023-03-01T00:28:39;38.30;;;21.30;;
3567;SDS011;1798;48.486;9.232;2023-03-01T00:31:08;36.70;;;21.48;;
3567;SDS011;1798;48.486;9.232;2023-03-01T00:33:35;41.63;;;21.03;;
3567;SDS011;1798;48.486;9.232;2023-03-01T00:36:03;39.88;;;22.88;;
3567;SDS011;1798;48.486;9.232;2023-03-01T00:38:30;44.88;;;24.33;;
3567;SDS011;1798;48.486;9.232;2023-03-01T00:41:04;44.28;;;23.13;;
3567;SDS011;1798;48.486;9.232;2023-03-01T00:43:33;40.40;;;23.08;;
3567;SDS011;1798;48.486;9.232;2023-03-01T00:46:02;36.60;;;21.83;;
3567;SDS011;1798;48.486;9.232;2023-03-01T00:48:29;39.10;;;23.10;;
3567;SDS011;1798;48.486;9.232;2023-03-01T00:50:56;40.30;;;22.65;;
3567;SDS011;1798;48.486;9.232;2023-03-01T00:53:22;40.50;;;24.20;;
3567;SDS011;1798;48.486;9.232;2023-03-01T00:55:49;35.30;;;22.35;;
3567;SDS011;1798;48.486;9.232;2023-03-01T00:58:16;38.17;;;22.05;;
3567;SDS011;1798;48.486;9.232;2023-03-01T01:00:44;41.08;;;23.00;;
3567;SDS011;1798;48.486;9.232;2023-03-01T01:03:10;35.55;;;21.77;;
3567;SDS011;1798;48.486;9.232;2023-03-01T01:05:37;40.80;;;23.27;;
3567;SDS011;1798;48.486;9.232;2023-03-01T01:08:04;37.85;;;22.02;;
3567;SDS011;1798;48.486;9.232;2023-03-01T01:10:33;39.67;;;21.10;;
3567;SDS011;1798;48.486;9.232;2023-03-01T01:12:59;41.63;;;22.33;;
3567;SDS011;1798;48.486;9.232;2023-03-01T01:15:26;34.95;;;21.73;;
3567;SDS011;1798;48.486;9.232;2023-03-01T01:17:54;42.00;;;22.95;;
3567;SDS011;1798;48.486;9.232;2023-03-01T01:20:21;37.17;;;22.52;;
3567;SDS011;1798;48.486;9.232;2023-03-01T01:22:47;45.30;;;22.75;;
3567;SDS011;1798;48.486;9.232;2023-03-01T01:25:14;37.03;;;22.75;;
3567;SDS011;1798;48.486;9.232;2023-03-01T01:27:41;49.78;;;23.42;;
3567;SDS011;1798;48.486;9.232;2023-03-01T01:30:08;35.27;;;22.10;;
3567;SDS011;1798;48.486;9.232;2023-03-01T01:32:36;45.67;;;25.30;;
3567;SDS011;1798;48.486;9.232;2023-03-01T01:35:04;37.87;;;23.00;;
3567;SDS011;1798;48.486;9.232;2023-03-01T01:37:31;41.92;;;22.23;;
3567;SDS011;1798;48.486;9.232;2023-03-01T01:39:58;39.70;;;21.90;;
3567;SDS011;1798;48.486;9.232;2023-03-01T01:42:25;45.28;;;23.92;;
3567;SDS011;1798;48.486;9.232;2023-03-01T01:47:56;35.73;;;22.73;;
3567;SDS011;1798;48.486;9.232;2023-03-01T01:50:27;44.53;;;23.35;;
3567;SDS011;1798;48.486;9.232;2023-03-01T01:53:03;36.55;;;23.25;;
3567;SDS011;1798;48.486;9.232;2023-03-01T01:55:31;35.85;;;21.98;;
3567;SDS011;1798;48.486;9.232;2023-03-01T01:58:00;41.92;;;23.65;;
3567;SDS011;1798;48.486;9.232;2023-03-01T02:00:29;44.40;;;23.70;;
3567;SDS011;1798;48.486;9.232;2023-03-01T02:02:56;46.30;;;24.80;;
3567;SDS011;1798;48.486;9.232;2023-03-01T02:05:26;38.25;;;22.27;;
3567;SDS011;1798;48.486;9.232;2023-03-01T02:07:59;35.40;;;21.65;;
3567;SDS011;1798;48.486;9.232;2023-03-01T02:10:26;37.80;;;22.67;;
3567;SDS011;1798;48.486;9.232;2023-03-01T02:12:53;41.53;;;24.05;;
3567;SDS011;1798;48.486;9.232;2023-03-01T02:15:21;38.97;;;22.77;;
3567;SDS011;1798;48.486;9.232;2023-03-01T02:17:48;38.58;;;23.30;;
3567;SDS011;1798;48.486;9.232;2023-03-01T02:20:15;41.75;;;24.38;;
3567;SDS011;1798;48.486;9.232;2023-03-01T02:22:48;39.88;;;24.58;;
3567;SDS011;1798;48.486;9.232;2023-03-01T02:25:25;41.78;;;25.60;;
3567;SDS011;1798;48.486;9.232;2023-03-01T02:27:55;37.97;;;22.02;;
3567;SDS011;1798;48.486;9.232;2023-03-01T02:30:26;44.88;;;25.27;;
3567;SDS011;1798;48.486;9.232;2023-03-01T02:32:54;40.47;;;23.83;;
3567;SDS011;1798;48.486;9.232;2023-03-01T02:35:27;45.43;;;25.27;;
3567;SDS011;1798;48.486;9.232;2023-03-01T02:37:55;44.13;;;24.60;;
3567;SDS011;1798;48.486;9.232;2023-03-01T02:40:25;44.42;;;24.27;;
3567;SDS011;1798;48.486;9.232;2023-03-01T02:42:55;44.38;;;24.88;;
3567;SDS011;1798;48.486;9.232;2023-03-01T02:45:24;42.25;;;24.65;;
3567;SDS011;1798;48.486;9.232;2023-03-01T02:47:53;42.97;;;24.13;;
3567;SDS011;1798;48.486;9.232;2023-03-01T02:50:23;39.97;;;25.38;;
3567;SDS011;1798;48.486;9.232;2023-03-01T02:53:00;45.22;;;25.40;;
3567;SDS011;1798;48.486;9.232;2023-03-01T02:55:28;44.22;;;25.42;;
3567;SDS011;1798;48.486;9.232;2023-03-01T02:57:55;42.83;;;25.27;;
3567;SDS011;1798;48.486;9.232;2023-03-01T03:00:23;46.17;;;25.33;;
3567;SDS011;1798;48.486;9.232;2023-03-01T03:02:53;38.35;;;25.25;;
3567;SDS011;1798;48.486;9.232;2023-03-01T03:05:22;39.90;;;24.45;;
3567;SDS011;1798;48.486;9.232;2023-03-01T03:07:50;49.25;;;24.48;;
3567;SDS011;1798;48.486;9.232;2023-03-01T03:10:18;39.10;;;24.90;;
3567;SDS011;1798;48.486;9.232;2023-03-01T03:12:48;42.15;;;24.52;;
3567;SDS011;1798;48.486;9.232;2023-03-01T03:15:15;43.75;;;24.70;;
3567;SDS011;1798;48.486;9.232;2023-03-01T03:17:44;37.83;;;23.70;;
3567;SDS011;1798;48.486;9.232;2023-03-01T03:20:11;42.95;;;26.23;;
3567;SDS011;1798;48.486;9.232;2023-03-01T03:22:44;46.70;;;26.77;;
3567;SDS011;1798;48.486;9.232;2023-03-01T03:25:10;43.27;;;23.70;;
3567;SDS011;1798;48.486;9.232;2023-03-01T03:27:38;39.13;;;25.33;;
3567;SDS011;1798;48.486;9.232;2023-03-01T03:30:06;44.10;;;23.90;;
3567;SDS011;1798;48.486;9.232;2023-03-01T03:32:37;43.40;;;26.67;;
3567;SDS011;1798;48.486;9.232;2023-03-01T03:35:07;41.78;;;25.33;;
3567;SDS011;1798;48.486;9.232;2023-03-01T03:37:35;40.50;;;24.20;;
3567;SDS011;1798;48.486;9.232;2023-03-01T03:40:20;44.95;;;25.60;;
3567;SDS011;1798;48.486;9.232;2023-03-01T03:42:47;43.78;;;25.45;;
3567;SDS011;1798;48.486;9.232;2023-03-01T03:45:13;42.08;;;23.83;;
3567;SDS011;1798;48.486;9.232;2023-03-01T03:47:41;41.40;;;24.45;;
3567;SDS011;1798;48.486;9.232;2023-03-01T03:50:10;40.15;;;23.60;;
3567;SDS011;1798;48.486;9.232;2023-03-01T03:52:38;44.72;;;24.90;;
3567;SDS011;1798;48.486;9.232;2023-03-01T03:55:05;39.33;;;24.47;;
3567;SDS011;1798;48.486;9.232;2023-03-01T03:57:36;40.63;;;24.97;;
3567;SDS011;1798;48.486;9.232;2023-03-01T04:00:03;39.77;;;25.20;;
3567;SDS011;1798;48.486;9.232;2023-03-01T04:02:31;43.33;;;26.08;;
3567;SDS011;1798;48.486;9.232;2023-03-01T04:04:57;42.72;;;24.75;;
3567;SDS011;1798;48.486;9.232;2023-03-01T04:07:25;44.22;;;26.17;;
3567;SDS011;1798;48.486;9.232;2023-03-01T04:09:52;43.72;;;25.20;;
3567;SDS011;1798;48.486;9.232;2023-03-01T04:12:18;45.45;;;26.27;;
3567;SDS011;1798;48.486;9.232;2023-03-01T04:14:48;45.33;;;26.52;;
3567;SDS011;1798;48.486;9.232;2023-03-01T04:17:14;45.05;;;24.70;;
3567;SDS011;1798;48.486;9.232;2023-03-01T04:19:41;46.30;;;26.08;;
3567;SDS011;1798;48.486;9.232;2023-03-01T04:22:09;46.00;;;26.50;;
3567;SDS011;1798;48.486;9.232;2023-03-01T04:24:43;42.63;;;26.20;;
3567;SDS011;1798;48.486;9.232;2023-03-01T04:27:10;40.38;;;24.88;;
3567;SDS011;1798;48.486;9.232;2023-03-01T04:29:37;42.58;;;25.42;;
3567;SDS011;1798;48.486;9.232;2023-03-01T04:32:04;52.20;;;27.08;;
3567;SDS011;1798;48.486;9.232;2023-03-01T04:34:31;45.05;;;26.48;;
3567;SDS011;1798;48.486;9.232;2023-03-01T04:36:58;40.70;;;26.70;;
3567;SDS011;1798;48.486;9.232;2023-03-01T04:39:24;41.63;;;25.45;;
3567;SDS011;1798;48.486;9.232;2023-03-01T04:41:52;48.22;;;27.58;;
3567;SDS011;1798;48.486;9.232;2023-03-01T04:44:19;49.40;;;26.40;;
3567;SDS011;1798;48.486;9.232;2023-03-01T04:46:48;43.13;;;27.27;;
3567;SDS011;1798;48.486;9.232;2023-03-01T04:49:15;46.20;;;26.02;;
3567;SDS011;1798;48.486;9.232;2023-03-01T04:51:41;46.75;;;28.27;;
3567;SDS011;1798;48.486;9.232;2023-03-01T04:54:09;42.78;;;24.02;;
3567;SDS011;1798;48.486;9.232;2023-03-01T04:56:36;50.40;;;27.53;;
3567;SDS011;1798;48.486;9.232;2023-03-01T04:59:04;40.20;;;25.52;;
3567;SDS011;1798;48.486;9.232;2023-03-01T05:01:31;49.20;;;26.85;;
3567;SDS011;1798;48.486;9.232;2023-03-01T05:03:58;49.97;;;27.10;;
3567;SDS011;1798;48.486;9.232;2023-03-01T05:06:28;42.47;;;26.23;;
3567;SDS011;1798;48.486;9.232;2023-03-01T05:08:55;46.90;;;27.70;;
3567;SDS011;1798;48.486;9.232;2023-03-01T05:11:22;48.85;;;26.10;;
3567;SDS011;1798;48.486;9.232;2023-03-01T05:13:48;44.20;;;26.53;;
3567;SDS011;1798;48.486;9.232;2023-03-01T05:16:21;55.97;;;29.13;;
3567;SDS011;1798;48.486;9.232;2023-03-01T05:18:48;47.30;;;26.40;;
3567;SDS011;1798;48.486;9.232;2023-03-01T05:21:16;45.60;;;26.95;;
3567;SDS011;1798;48.486;9.232;2023-03-01T05:23:43;46.92;;;27.70;;
3567;SDS011;1798;48.486;9.232;2023-03-01T05:26:11;51.60;;;28.52;;
3567;SDS011;1798;48.486;9.232;2023-03-01T05:28:38;43.50;;;27.23;;
3567;SDS011;1798;48.486;9.232;2023-03-01T05:31:06;44.45;;;27.92;;
3567;SDS011;1798;48.486;9.232;2023-03-01T05:33:36;50.25;;;29.13;;
3567;SDS011;1798;48.486;9.232;2023-03-01T05:36:03;45.95;;;27.25;;
3567;SDS011;1798;48.486;9.232;2023-03-01T05:38:31;46.73;;;29.20;;
3567;SDS011;1798;48.486;9.232;2023-03-01T05:40:58;46.28;;;27.42;;
3567;SDS011;1798;48.486;9.232;2023-03-01T05:43:25;45.73;;;28.50;;
3567;SDS011;1798;48.486;9.232;2023-03-01T05:45:52;51.63;;;29.38;;
3567;SDS011;1798;48.486;9.232;2023-03-01T05:48:18;50.38;;;29.30;;
3567;SDS011;1798;48.486;9.232;2023-03-01T05:50:47;51.40;;;28.30;;
3567;SDS011;1798;48.486;9.232;2023-03-01T05:53:15;44.95;;;26.90;;
3567;SDS011;1798;48.486;9.232;2023-03-01T05:55:42;47.40;;;29.83;;
3567;SDS011;1798;48.486;9.232;2023-03-01T05:58:12;51.20;;;29.52;;
3567;SDS011;1798;48.486;9.232;2023-03-01T06:00:40;54.33;;;29.27;;
3567;SDS011;1798;48.486;9.232;2023-03-01T06:03:09;53.75;;;28.80;;
3567;SDS011;1798;48.486;9.232;2023-03-01T06:05:37;52.53;;;29.52;;
3567;SDS011;1798;48.486;9.232;2023-03-01T06:08:06;45.13;;;27.95;;
3567;SDS011;1798;48.486;9.232;2023-03-01T06:10:32;47.03;;;28.70;;
3567;SDS011;1798;48.486;9.232;2023-03-01T06:12:59;46.75;;;27.73;;
3567;SDS011;1798;48.486;9.232;2023-03-01T06:15:26;47.63;;;28.30;;
3567;SDS011;1798;48.486;9.232;2023-03-01T06:17:53;52.53;;;30.27;;
3567;SDS011;1798;48.486;9.232;2023-03-01T06:20:22;48.53;;;28.27;;
3567;SDS011;1798;48.486;9.232;2023-03-01T06:22:50;50.88;;;28.75;;
3567;SDS011;1798;48.486;9.232;2023-03-01T06:25:19;52.60;;;30.65;;
3567;SDS011;1798;48.486;9.232;2023-03-01T06:27:48;48.70;;;28.73;;
3567;SDS011;1798;48.486;9.232;2023-03-01T06:30:15;49.50;;;30.25;;
3567;SDS011;1798;48.486;9.232;2023-03-01T06:32:43;52.45;;;28.27;;
3567;SDS011;1798;48.486;9.232;2023-03-01T06:35:10;49.58;;;29.92;;
3567;SDS011;1798;48.486;9.232;2023-03-01T06:37:37;55.58;;;32.03;;
3567;SDS011;1798;48.486;9.232;2023-03-01T06:40:05;50.25;;;29.83;;
3567;SDS011;1798;48.486;9.232;2023-03-01T06:42:34;57.87;;;29.40;;
3567;SDS011;1798;48.486;9.232;2023-03-01T06:45:01;54.08;;;30.85;;
3567;SDS011;1798;48.486;9.232;2023-03-01T06:47:28;50.65;;;29.02;;
3567;SDS011;1798;48.486;9.232;2023-03-01T06:49:54;53.33;;;30.92;;
3567;SDS011;1798;48.486;9.232;2023-03-01T06:52:21;62.47;;;30.70;;
3567;SDS011;1798;48.486;9.232;2023-03-01T06:54:48;53.00;;;30.90;;
3567;SDS011;1798;48.486;9.232;2023-03-01T06:57:15;46.10;;;30.92;;
3567;SDS011;1798;48.486;9.232;2023-03-01T06:59:43;48.05;;;29.70;;
3567;SDS011;1798;48.486;9.232;2023-03-01T07:02:10;46.25;;;28.23;;
3567;SDS011;1798;48.486;9.232;2023-03-01T07:04:37;50.15;;;30.08;;
3567;SDS011;1798;48.486;9.232;2023-03-01T07:07:04;53.67;;;29.70;;
3567;SDS011;1798;48.486;9.232;2023-03-01T07:09:31;49.60;;;30.75;;
3567;SDS011;1798;48.486;9.232;2023-03-01T07:11:58;54.35;;;31.40;;
3567;SDS011;1798;48.486;9.232;2023-03-01T07:14:24;56.00;;;31.48;;
3567;SDS011;1798;48.486;9.232;2023-03-01T07:16:53;50.15;;;31.13;;
3567;SDS011;1798;48.486;9.232;2023-03-01T07:19:20;53.95;;;30.08;;
3567;SDS011;1798;48.486;9.232;2023-03-01T07:21:47;51.10;;;30.33;;
3567;SDS011;1798;48.486;9.232;2023-03-01T07:24:13;44.08;;;29.25;;
3567;SDS011;1798;48.486;9.232;2023-03-01T07:26:40;52.28;;;30.90;;
3567;SDS011;1798;48.486;9.232;2023-03-01T07:29:07;47.45;;;29.40;;
3567;SDS011;1798;48.486;9.232;2023-03-01T07:31:36;57.90;;;29.73;;
3567;SDS011;1798;48.486;9.232;2023-03-01T07:34:04;49.22;;;31.05;;
3567;SDS011;1798;48.486;9.232;2023-03-01T07:36:31;48.38;;;29.10;;
3567;SDS011;1798;48.486;9.232;2023-03-01T07:38:58;50.42;;;30.35;;
3567;SDS011;1798;48.486;9.232;2023-03-01T07:41:27;49.55;;;31.55;;
3567;SDS011;1798;48.486;9.232;2023-03-01T07:43:54;50.40;;;31.15;;
3567;SDS011;1798;48.486;9.232;2023-03-01T07:46:20;50.30;;;30.02;;
3567;SDS011;1798;48.486;9.232;2023-03-01T07:48:47;50.17;;;30.08;;
3567;SDS011;1798;48.486;9.232;2023-03-01T07:51:15;48.10;;;30.67;;
3567;SDS011;1798;48.486;9.232;2023-03-01T07:53:44;48.72;;;28.65;;
3567;SDS011;1798;48.486;9.232;2023-03-01T07:56:12;47.85;;;30.00;;
3567;SDS011;1798;48.486;9.232;2023-03-01T07:58:42;56.63;;;32.88;;
3567;SDS011;1798;48.486;9.232;2023-03-01T08:01:10;50.22;;;31.73;;
3567;SDS011;1798;48.486;9.232;2023-03-01T08:03:38;45.53;;;28.90;;
3567;SDS011;1798;48.486;9.232;2023-03-01T08:06:06;55.80;;;33.55;;
3567;SDS011;1798;48.486;9.232;2023-03-01T08:08:35;51.70;;;29.43;;
3567;SDS011;1798;48.486;9.232;2023-03-01T08:11:03;49.50;;;30.08;;
3567;SDS011;1798;48.486;9.232;2023-03-01T08:13:32;50.67;;;29.67;;
3567;SDS011;1798;48.486;9.232;2023-03-01T08:16:03;49.17;;;30.50;;
3567;SDS011;1798;48.486;9.232;2023-03-01T08:18:31;47.75;;;28.58;;
3567;SDS011;1798;48.486;9.232;2023-03-01T08:21:01;45.92;;;29.55;;
3567;SDS011;1798;48.486;9.232;2023-03-01T08:23:28;51.35;;;31.05;;
3567;SDS011;1798;48.486;9.232;2023-03-01T08:25:56;47.67;;;30.20;;
3567;SDS011;1798;48.486;9.232;2023-03-01T08:28:29;49.55;;;30.83;;
3567;SDS011;1798;48.486;9.232;2023-03-01T08:30:56;53.30;;;32.87;;
3567;SDS011;1798;48.486;9.232;2023-03-01T08:33:23;46.60;;;28.70;;
3567;SDS011;1798;48.486;9.232;2023-03-01T08:35:50;48.93;;;29.80;;
3567;SDS011;1798;48.486;9.232;2023-03-01T08:38:17;50.97;;;30.40;;
3567;SDS011;1798;48.486;9.232;2023-03-01T08:40:43;49.75;;;29.73;;
3567;SDS011;1798;48.486;9.232;2023-03-01T08:43:11;45.30;;;30.15;;
3567;SDS011;1798;48.486;9.232;2023-03-01T08:45:38;48.28;;;30.45;;
3567;SDS011;1798;48.486;9.232;2023-03-01T08:48:05;54.10;;;33.90;;
3567;SDS011;1798;48.486;9.232;2023-03-01T08:50:31;55.92;;;34.10;;
3567;SDS011;1798;48.486;9.232;2023-03-01T08:52:58;50.88;;;30.85;;
3567;SDS011;1798;48.486;9.232;2023-03-01T08:55:25;53.88;;;32.50;;
3567;SDS011;1798;48.486;9.232;2023-03-01T08:57:51;52.30;;;32.75;;
3567;SDS011;1798;48.486;9.232;2023-03-01T09:00:20;58.00;;;33.28;;
3567;SDS011;1798;48.486;9.232;2023-03-01T09:02:48;53.97;;;32.58;;
3567;SDS011;1798;48.486;9.232;2023-03-01T09:05:15;51.10;;;31.10;;
3567;SDS011;1798;48.486;9.232;2023-03-01T09:07:41;51.80;;;31.47;;
3567;SDS011;1798;48.486;9.232;2023-03-01T09:10:09;52.40;;;33.00;;
3567;SDS011;1798;48.486;9.232;2023-03-01T09:12:36;52.63;;;32.90;;
3567;SDS011;1798;48.486;9.232;2023-03-01T09:15:03;55.45;;;31.33;;
3567;SDS011;1798;48.486;9.232;2023-03-01T09:17:31;53.58;;;33.00;;
3567;SDS011;1798;48.486;9.232;2023-03-01T09:19:58;50.28;;;30.67;;
3567;SDS011;1798;48.486;9.232;2023-03-01T09:22:25;51.90;;;31.35;;
3567;SDS011;1798;48.486;9.232;2023-03-01T09:24:52;59.97;;;33.20;;
3567;SDS011;1798;48.486;9.232;2023-03-01T09:27:19;56.92;;;33.25;;
3567;SDS011;1798;48.486;9.232;2023-03-01T09:29:45;49.65;;;31.48;;
3567;SDS011;1798;48.486;9.232;2023-03-01T09:32:12;49.28;;;30.77;;
3567;SDS011;1798;48.486;9.232;2023-03-01T09:34:41;51.47;;;31.83;;
3567;SDS011;1798;48.486;9.232;2023-03-01T09:37:22;55.77;;;32.77;;
3567;SDS011;1798;48.486;9.232;2023-03-01T09:39:49;42.90;;;27.83;;
3567;SDS011;1798;48.486;9.232;2023-03-01T09:42:15;56.25;;;30.70;;
3567;SDS011;1798;48.486;9.232;2023-03-01T09:44:43;58.53;;;35.23;;
3567;SDS011;1798;48.486;9.232;2023-03-01T09:47:16;45.03;;;28.30;;
3567;SDS011;1798;48.486;9.232;2023-03-01T09:49:47;48.78;;;31.10;;
3567;SDS011;1798;48.486;9.232;2023-03-01T09:52:25;53.03;;;31.75;;
3567;SDS011;1798;48.486;9.232;2023-03-01T09:54:56;61.63;;;32.17;;
3567;SDS011;1798;48.486;9.232;2023-03-01T09:57:26;51.42;;;30.50;;
3567;SDS011;1798;48.486;9.232;2023-03-01T10:00:00;50.83;;;31.45;;
3567;SDS011;1798;48.486;9.232;2023-03-01T10:02:39;57.00;;;33.47;;
3567;SDS011;1798;48.486;9.232;2023-03-01T10:08:06;52.37;;;30.97;;
3567;SDS011;1798;48.486;9.232;2023-03-01T10:10:56;62.53;;;30.73;;
3567;SDS011;1798;48.486;9.232;2023-03-01T10:13:24;48.45;;;30.27;;
3567;SDS011;1798;48.486;9.232;2023-03-01T10:15:53;55.20;;;32.67;;
3567;SDS011;1798;48.486;9.232;2023-03-01T10:18:21;54.30;;;31.17;;
3567;SDS011;1798;48.486;9.232;2023-03-01T10:20:51;50.33;;;30.67;;
3567;SDS011;1798;48.486;9.232;2023-03-01T10:23:21;61.30;;;31.63;;
3567;SDS011;1798;48.486;9.232;2023-03-01T10:25:53;51.78;;;29.85;;
3567;SDS011;1798;48.486;9.232;2023-03-01T10:28:29;70.15;;;31.20;;
3567;SDS011;1798;48.486;9.232;2023-03-01T10:30:57;51.13;;;29.95;;
3567;SDS011;1798;48.486;9.232;2023-03-01T10:33:26;50.33;;;30.10;;
3567;SDS011;1798;48.486;9.232;2023-03-01T10:35:55;48.63;;;29.38;;
3567;SDS011;1798;48.486;9.232;2023-03-01T10:38:23;56.83;;;30.58;;
3567;SDS011;1798;48.486;9.232;2023-03-01T10:40:51;55.75;;;30.40;;
3567;SDS011;1798;48.486;9.232;2023-03-01T10:43:19;55.35;;;31.88;;
3567;SDS011;1798;48.486;9.232;2023-03-01T10:45:46;56.78;;;29.92;;
3567;SDS011;1798;48.486;9.232;2023-03-01T10:48:14;53.08;;;31.48;;
3567;SDS011;1798;48.486;9.232;2023-03-01T10:50:44;50.85;;;30.70;;
3567;SDS011;1798;48.486;9.232;2023-03-01T10:53:26;54.25;;;30.35;;
3567;SDS011;1798;48.486;9.232;2023-03-01T10:55:59;54.15;;;29.20;;
3567;SDS011;1798;48.486;9.232;2023-03-01T10:58:28;43.63;;;27.47;;
3567;SDS011;1798;48.486;9.232;2023-03-01T11:00:56;50.08;;;30.90;;
3567;SDS011;1798;48.486;9.232;2023-03-01T11:03:23;48.65;;;29.73;;
3567;SDS011;1798;48.486;9.232;2023-03-01T11:05:53;51.90;;;31.02;;
3567;SDS011;1798;48.486;9.232;2023-03-01T11:08:35;48.92;;;29.23;;
3567;SDS011;1798;48.486;9.232;2023-03-01T11:11:14;46.13;;;27.25;;
3567;SDS011;1798;48.486;9.232;2023-03-01T11:13:50;46.63;;;27.27;;
3567;SDS011;1798;48.486;9.232;2023-03-01T11:16:23;44.33;;;29.08;;
3567;SDS011;1798;48.486;9.232;2023-03-01T11:18:58;48.63;;;30.25;;
3567;SDS011;1798;48.486;9.232;2023-03-01T11:21:26;46.30;;;28.40;;
3567;SDS011;1798;48.486;9.232;2023-03-01T11:23:56;45.95;;;29.35;;
3567;SDS011;1798;48.486;9.232;2023-03-01T11:26:24;45.17;;;27.77;;
3567;SDS011;1798;48.486;9.232;2023-03-01T11:28:51;56.95;;;27.45;;
3567;SDS011;1798;48.486;9.232;2023-03-01T11:31:21;51.33;;;28.13;;
3567;SDS011;1798;48.486;9.232;2023-03-01T11:33:49;56.25;;;28.55;;
3567;SDS011;1798;48.486;9.232;2023-03-01T11:36:23;45.40;;;28.30;;
3567;SDS011;1798;48.486;9.232;2023-03-01T11:38:56;69.15;;;30.67;;
3567;SDS011;1798;48.486;9.232;2023-03-01T11:41:23;50.17;;;31.38;;
3567;SDS011;1798;48.486;9.232;2023-03-01T11:43:52;53.72;;;29.95;;
3567;SDS011;1798;48.486;9.232;2023-03-01T11:46:36;52.85;;;31.90;;
3567;SDS011;1798;48.486;9.232;2023-03-01T11:49:24;48.85;;;29.33;;
3567;SDS011;1798;48.486;9.232;2023-03-01T11:52:03;55.97;;;29.52;;
3567;SDS011;1798;48.486;9.232;2023-03-01T11:54:39;54.43;;;31.93;;
3567;SDS011;1798;48.486;9.232;2023-03-01T11:57:15;53.90;;;30.63;;
3567;SDS011;1798;48.486;9.232;2023-03-01T11:59:54;58.47;;;31.75;;
3567;SDS011;1798;48.486;9.232;2023-03-01T12:02:40;50.40;;;31.02;;
3567;SDS011;1798;48.486;9.232;2023-03-01T12:05:24;58.05;;;34.47;;
3567;SDS011;1798;48.486;9.232;2023-03-01T12:08:03;58.65;;;30.42;;
3567;SDS011;1798;48.486;9.232;2023-03-01T12:10:36;51.95;;;30.85;;
3567;SDS011;1798;48.486;9.232;2023-03-01T12:13:13;57.40;;;31.20;;
3567;SDS011;1798;48.486;9.232;2023-03-01T12:16:05;49.25;;;31.55;;
3567;SDS011;1798;48.486;9.232;2023-03-01T12:21:30;49.78;;;30.33;;
3567;SDS011;1798;48.486;9.232;2023-03-01T12:24:20;49.40;;;29.90;;
3567;SDS011;1798;48.486;9.232;2023-03-01T12:26:58;55.40;;;31.75;;
3567;SDS011;1798;48.486;9.232;2023-03-01T12:29:33;53.08;;;31.58;;
3567;SDS011;1798;48.486;9.232;2023-03-01T12:32:05;63.17;;;33.58;;
3567;SDS011;1798;48.486;9.232;2023-03-01T12:34:46;48.85;;;29.70;;
3567;SDS011;1798;48.486;9.232;2023-03-01T12:37:21;56.13;;;30.52;;
3567;SDS011;1798;48.486;9.232;2023-03-01T12:39:56;52.77;;;32.17;;
3567;SDS011;1798;48.486;9.232;2023-03-01T12:42:44;49.22;;;29.98;;
3567;SDS011;1798;48.486;9.232;2023-03-01T12:45:31;51.15;;;30.48;;
3567;SDS011;1798;48.486;9.232;2023-03-01T12:50:57;51.55;;;29.25;;
3567;SDS011;1798;48.486;9.232;2023-03-01T12:53:27;50.70;;;30.88;;
3567;SDS011;1798;48.486;9.232;2023-03-01T12:55:58;47.03;;;28.67;;
3567;SDS011;1798;48.486;9.232;2023-03-01T12:58:29;48.58;;;29.90;;
3567;SDS011;1798;48.486;9.232;2023-03-01T13:03:53;50.65;;;29.30;;
3567;SDS011;1798;48.486;9.232;2023-03-01T13:06:32;49.67;;;31.27;;
3567;SDS011;1798;48.486;9.232;2023-03-01T13:09:07;47.17;;;28.50;;
3567;SDS011;1798;48.486;9.232;2023-03-01T13:11:40;41.78;;;27.25;;
3567;SDS011;1798;48.486;9.232;2023-03-01T13:17:31;51.15;;;29.85;;
3567;SDS011;1798;48.486;9.232;2023-03-01T13:20:00;51.35;;;28.27;;
3567;SDS011;1798;48.486;9.232;2023-03-01T13:22:30;49.33;;;28.88;;
3567;SDS011;1798;48.486;9.232;2023-03-01T13:25:02;41.72;;;28.30;;
3567;SDS011;1798;48.486;9.232;2023-03-01T13:27:38;46.58;;;28.50;;
3567;SDS011;1798;48.486;9.232;2023-03-01T13:30:12;47.00;;;27.00;;
3567;SDS011;1798;48.486;9.232;2023-03-01T13:33:33;48.60;;;27.63;;
3567;SDS011;1798;48.486;9.232;2023-03-01T13:36:05;49.28;;;28.08;;
3567;SDS011;1798;48.486;9.232;2023-03-01T13:38:37;47.30;;;27.88;;
3567;SDS011;1798;48.486;9.232;2023-03-01T13:41:06;44.22;;;26.60;;
3567;SDS011;1798;48.486;9.232;2023-03-01T13:43:34;51.07;;;27.73;;
3567;SDS011;1798;48.486;9.232;2023-03-01T13:46:07;53.30;;;26.63;;
3567;SDS011;1798;48.486;9.232;2023-03-01T13:48:36;47.45;;;28.83;;
3567;SDS011;1798;48.486;9.232;2023-03-01T13:51:05;48.87;;;28.73;;
3567;SDS011;1798;48.486;9.232;2023-03-01T13:53:35;47.13;;;27.52;;
3567;SDS011;1798;48.486;9.232;2023-03-01T13:56:06;54.20;;;29.25;;
3567;SDS011;1798;48.486;9.232;2023-03-01T13:58:43;47.10;;;29.67;;
3567;SDS011;1798;48.486;9.232;2023-03-01T14:01:20;49.10;;;29.92;;
3567;SDS011;1798;48.486;9.232;2023-03-01T14:03:48;51.28;;;30.95;;
3567;SDS011;1798;48.486;9.232;2023-03-01T14:06:16;52.30;;;29.63;;
3567;SDS011;1798;48.486;9.232;2023-03-01T14:08:44;48.25;;;30.40;;
3567;SDS011;1798;48.486;9.232;2023-03-01T14:11:24;61.35;;;27.70;;
3567;SDS011;1798;48.486;9.232;2023-03-01T14:14:16;51.05;;;28.30;;
3567;SDS011;1798;48.486;9.232;2023-03-01T14:16:52;49.05;;;29.83;;
3567;SDS011;1798;48.486;9.232;2023-03-01T14:19:21;51.08;;;29.58;;
3567;SDS011;1798;48.486;9.232;2023-03-01T14:21:58;49.25;;;30.30;;
3567;SDS011;1798;48.486;9.232;2023-03-01T14:24:28;51.25;;;28.27;;
3567;SDS011;1798;48.486;9.232;2023-03-01T14:26:57;53.58;;;28.52;;
3567;SDS011;1798;48.486;9.232;2023-03-01T14:29:25;49.40;;;28.63;;
3567;SDS011;1798;48.486;9.232;2023-03-01T14:31:54;57.00;;;30.38;;
3567;SDS011;1798;48.486;9.232;2023-03-01T14:34:21;50.05;;;29.70;;
3567;SDS011;1798;48.486;9.232;2023-03-01T14:36:49;52.03;;;29.35;;
3567;SDS011;1798;48.486;9.232;2023-03-01T14:39:16;49.90;;;29.77;;
3567;SDS011;1798;48.486;9.232;2023-03-01T14:41:44;60.13;;;30.10;;
3567;SDS011;1798;48.486;9.232;2023-03-01T14:44:12;50.40;;;29.85;;
3567;SDS011;1798;48.486;9.232;2023-03-01T14:46:43;49.72;;;30.08;;
3567;SDS011;1798;48.486;9.232;2023-03-01T14:49:13;52.35;;;29.50;;
3567;SDS011;1798;48.486;9.232;2023-03-01T14:51:42;52.37;;;29.03;;
3567;SDS011;1798;48.486;9.232;2023-03-01T14:54:18;46.90;;;28.92;;
3567;SDS011;1798;48.486;9.232;2023-03-01T14:56:46;45.97;;;27.73;;
3567;SDS011;1798;48.486;9.232;2023-03-01T14:59:13;51.63;;;29.05;;
3567;SDS011;1798;48.486;9.232;2023-03-01T15:01:41;56.55;;;30.02;;
3567;SDS011;1798;48.486;9.232;2023-03-01T15:04:11;50.30;;;29.58;;
3567;SDS011;1798;48.486;9.232;2023-03-01T15:06:38;49.97;;;29.30;;
3567;SDS011;1798;48.486;9.232;2023-03-01T15:09:05;53.03;;;27.98;;
3567;SDS011;1798;48.486;9.232;2023-03-01T15:11:33;41.60;;;26.48;;
3567;SDS011;1798;48.486;9.232;2023-03-01T15:14:02;47.55;;;29.30;;
3567;SDS011;1798;48.486;9.232;2023-03-01T15:16:52;50.38;;;29.38;;
3567;SDS011;1798;48.486;9.232;2023-03-01T15:19:21;52.03;;;28.38;;
3567;SDS011;1798;48.486;9.232;2023-03-01T15:21:50;54.83;;;29.45;;